Terminal Aerodrome Forecast
Issued by NWS North Platte, NE

Home | Current Version | Previous Version | Text Only | Print | Product List | Glossary On
Versions: 1 2 3 4 5 6 7 8 9 10 11 12 13 14 15 16
000
FTUS43 KLBF 201740
TAFVTN
TAF
KVTN 201740Z 2018/2118 02008KT P6SM OVC250
     FM210600 01007KT P6SM SCT050 OVC100
     FM211000 36010KT P6SM VCSH OVC040
     FM211200 36012KT 6SM -SN BKN015 OVC040
     FM211500 01014KT 2SM -SN OVC008=

USA.gov is the U.S. government's official web portal to all federal, state and local government web resources and services.